Wye River — WDE3583 — position and weather

sailwx.info

Track history (hours):
 
Tides and Currents Weather Stations Pressure Air Temp Water Temp Dewpoint Dewpoint Depression Visibility Wind Speed Wind Dir Waves Ship Positions

Wye River

Owner: Vane Line Bunkering, Inc., Baltimore, MD. More information available from US FCC via Universal Licensing System and Coast Guard Vessel Documentation Center.

Last reported at 2016-Apr-30 12:31 UTC. Time now 2016-May-01 11:48 UTC.
Position N 32°09' W 080°17'.

Length 30 m; draft 4.3 m.

Type: Tow > 200 m length. MMSI: 367341190.

Date/timePositionNaut miles runAvg speedWind from/ knotsBaromVisibWave heightAir tempDewpointWater temp
2016-Apr-30 12:31N 32°09' W 080°17'8 7.6
2016-Apr-30 11:31N 32°04' W 080°25'8 7.9
2016-Apr-30 10:33N 32°02' W 080°33'8 8.1
2016-Apr-30 09:31N 32°01' W 080°43'4 4.1
2016-Apr-30 08:33N 32°00' W 080°48'9 8.7
2016-Apr-30 07:33N 32°04' W 080°57'7 6.7
2016-Apr-30 06:33N 32°05' W 081°05'2 1.8
2016-Apr-30 05:34N 32°06' W 081°06'0 0.1
2016-Apr-30 04:33N 32°06' W 081°06'0 0.0
2016-Apr-30 03:33N 32°06' W 081°06'0 0.0
2016-Apr-30 02:33N 32°06' W 081°06'0 0.0
2016-Apr-30 01:33N 32°06' W 081°06'0 0.0
2016-Apr-30 00:33N 32°06' W 081°06'0 0.0
2016-Apr-29 23:33N 32°06' W 081°06'0 0.0
2016-Apr-29 22:33N 32°06' W 081°06'0 0.2
2016-Apr-29 21:33N 32°06' W 081°06'0 0.0
2016-Apr-29 20:33N 32°06' W 081°06'0 0.2
2016-Apr-29 19:33N 32°06' W 081°06'0 0.0
2016-Apr-29 18:33N 32°06' W 081°06'0 0.1
2016-Apr-29 17:34N 32°06' W 081°06'3 2.5
2016-Apr-29 16:33N 32°05' W 081°04'8 7.8
2016-Apr-29 15:33N 32°02' W 080°55'9 8.7
2016-Apr-29 14:33N 31°58' W 080°46'297 7.4
2016-Apr-27 22:33N 27°04' W 079°60'10 9.6
2016-Apr-27 21:33N 26°54' W 079°58'20 9.6
2016-Apr-27 19:30N 26°34' W 079°59'8 9.0
2016-Apr-27 18:33N 26°26' W 080°00'8 8.1
2016-Apr-27 17:33N 26°18' W 080°01'8 7.5
2016-Apr-27 16:33N 26°11' W 080°03'5 4.8
2016-Apr-27 15:33N 26°06' W 080°04'4 3.8
2016-Apr-27 14:33N 26°02' W 080°03'7 7.2
2016-Apr-27 13:33N 25°55' W 080°02'6 6.1
2016-Apr-27 12:33N 25°49' W 080°02'3 3.3
2016-Apr-27 11:33N 25°46' W 080°02'3 2.8
2016-Apr-27 10:33N 25°43' W 080°02'  
Track history (hours):
 
Tides and Currents Weather Stations Pressure Air Temp Water Temp Dewpoint Dewpoint Depression Visibility Wind Speed Wind Dir Waves Ship Positions

Wye River

Owner: Vane Line Bunkering, Inc., Baltimore, MD. More information available from US FCC via Universal Licensing System and Coast Guard Vessel Documentation Center.

Last reported at 2016-Apr-30 12:31 UTC. Time now 2016-May-01 11:48 UTC.
Position N 32°09' W 080°17'.

Length 30 m; draft 4.3 m.

Type: Tow > 200 m length. MMSI: 367341190.

Date/timePositionNaut miles runAvg speedWind from/ knotsBaromVisibWave heightAir tempDewpointWater temp
2016-Apr-30 12:31N 32°09' W 080°17'8 7.6
2016-Apr-30 11:31N 32°04' W 080°25'8 7.9
2016-Apr-30 10:33N 32°02' W 080°33'8 8.1
2016-Apr-30 09:31N 32°01' W 080°43'4 4.1
2016-Apr-30 08:33N 32°00' W 080°48'9 8.7
2016-Apr-30 07:33N 32°04' W 080°57'7 6.7
2016-Apr-30 06:33N 32°05' W 081°05'2 1.8
2016-Apr-30 05:34N 32°06' W 081°06'0 0.1
2016-Apr-30 04:33N 32°06' W 081°06'0 0.0
2016-Apr-30 03:33N 32°06' W 081°06'0 0.0
2016-Apr-30 02:33N 32°06' W 081°06'0 0.0
2016-Apr-30 01:33N 32°06' W 081°06'0 0.0
2016-Apr-30 00:33N 32°06' W 081°06'0 0.0
2016-Apr-29 23:33N 32°06' W 081°06'0 0.0
2016-Apr-29 22:33N 32°06' W 081°06'0 0.2
2016-Apr-29 21:33N 32°06' W 081°06'0 0.0
2016-Apr-29 20:33N 32°06' W 081°06'0 0.2
2016-Apr-29 19:33N 32°06' W 081°06'0 0.0
2016-Apr-29 18:33N 32°06' W 081°06'0 0.1
2016-Apr-29 17:34N 32°06' W 081°06'3 2.5
2016-Apr-29 16:33N 32°05' W 081°04'8 7.8
2016-Apr-29 15:33N 32°02' W 080°55'9 8.7
2016-Apr-29 14:33N 31°58' W 080°46'297 7.4
2016-Apr-27 22:33N 27°04' W 079°60'10 9.6
2016-Apr-27 21:33N 26°54' W 079°58'20 9.6
2016-Apr-27 19:30N 26°34' W 079°59'8 9.0
2016-Apr-27 18:33N 26°26' W 080°00'8 8.1
2016-Apr-27 17:33N 26°18' W 080°01'8 7.5
2016-Apr-27 16:33N 26°11' W 080°03'5 4.8
2016-Apr-27 15:33N 26°06' W 080°04'4 3.8
2016-Apr-27 14:33N 26°02' W 080°03'7 7.2
2016-Apr-27 13:33N 25°55' W 080°02'6 6.1
2016-Apr-27 12:33N 25°49' W 080°02'3 3.3
2016-Apr-27 11:33N 25°46' W 080°02'3 2.8
2016-Apr-27 10:33N 25°43' W 080°02'  

Dump ship's entire track history